Página principal
METAR-TAF:

METAR-TAF

Aeroportos :

Terceira, Açores, Portugal

Base Aérea das Lajes

latitude: 38-46N, longitude: 027-06W, altura: 52 m

Observação actual do tempo

O boletim foi feito há 44 minutos, às 00:00 UTC
Temperatura 22°C
Humidade 83%
Pressão 1021 hPa
Visibilidade 10 km ou mais
Poucas nuvensa uma altura de 2000 ft

METAR: LPLA 200000Z /////KT 9999 FEW020 22/19 Q1021

Hora: 00:44 (00:44 UTC)

Previsão

O boletim foi feito há 1 hora e 42 minutos, às 23:02 UTC
Previsão válida de 20 às 00 UTC a 20 às 24 UTC
Vento 2 kt com direcção variável
Visibilidade 10 km ou mais
Poucas nuvensa uma altura de 2500 ft
Tornando-se
de 20 às 09 UTC a 20 às 11 UTC
Vento 10 kt de sudoeste

TAF: LPLA 192302Z 2000/2024 VRB02KT 9999 FEW025 BECMG 2009/2011 23010KT

Observações e previsões do tempo de mais de 4000 aeroportos (mensagens METAR e TAF).

As estações disponíveis são os pontos amarelos e vermelhos sobre o mapa.

Mova o rato sobre o mapa para ver o nome da estação.

Depois clique no ponto para visualizar as observações e previsões meteorológicas.

Para alterar o mapa : clique nos botões verdes com uma cruz preta para aumentar o zoom; no botão verde com uma pitada de zoom; ou nas setas verdes para mapas adjacentes.


METAR-TAF: